sensor_id;sensor_type;location;lat;lon;timestamp;P1;durP1;ratioP1;P2;durP2;ratioP2
10641;SDS011;5369;49.586;8.646;2023-04-15T00:00:13;12.80;;;7.80;;
10641;SDS011;5369;49.586;8.646;2023-04-15T00:02:40;13.37;;;7.43;;
10641;SDS011;5369;49.586;8.646;2023-04-15T00:05:06;14.30;;;9.20;;
10641;SDS011;5369;49.586;8.646;2023-04-15T00:07:33;56.47;;;28.93;;
10641;SDS011;5369;49.586;8.646;2023-04-15T00:09:59;55.43;;;29.57;;
10641;SDS011;5369;49.586;8.646;2023-04-15T00:12:26;36.83;;;20.63;;
10641;SDS011;5369;49.586;8.646;2023-04-15T00:14:52;22.47;;;13.70;;
10641;SDS011;5369;49.586;8.646;2023-04-15T00:17:19;19.57;;;11.03;;
10641;SDS011;5369;49.586;8.646;2023-04-15T00:19:45;22.00;;;10.93;;
10641;SDS011;5369;49.586;8.646;2023-04-15T00:22:11;18.23;;;10.00;;
10641;SDS011;5369;49.586;8.646;2023-04-15T00:24:38;15.20;;;8.73;;
10641;SDS011;5369;49.586;8.646;2023-04-15T00:27:04;11.43;;;6.47;;
10641;SDS011;5369;49.586;8.646;2023-04-15T00:29:31;11.17;;;6.57;;
10641;SDS011;5369;49.586;8.646;2023-04-15T00:31:57;9.03;;;5.93;;
10641;SDS011;5369;49.586;8.646;2023-04-15T00:34:23;10.47;;;5.93;;
10641;SDS011;5369;49.586;8.646;2023-04-15T00:36:49;10.60;;;6.60;;
10641;SDS011;5369;49.586;8.646;2023-04-15T00:39:16;9.67;;;7.10;;
10641;SDS011;5369;49.586;8.646;2023-04-15T00:41:43;10.80;;;6.40;;
10641;SDS011;5369;49.586;8.646;2023-04-15T00:44:10;7.23;;;5.47;;
10641;SDS011;5369;49.586;8.646;2023-04-15T00:46:37;7.40;;;5.40;;
10641;SDS011;5369;49.586;8.646;2023-04-15T00:49:04;9.17;;;5.87;;
10641;SDS011;5369;49.586;8.646;2023-04-15T00:51:32;11.73;;;6.83;;
10641;SDS011;5369;49.586;8.646;2023-04-15T00:54:00;43.37;;;21.73;;
10641;SDS011;5369;49.586;8.646;2023-04-15T00:56:27;28.53;;;14.43;;
10641;SDS011;5369;49.586;8.646;2023-04-15T00:58:54;15.77;;;9.40;;
10641;SDS011;5369;49.586;8.646;2023-04-15T01:01:21;12.50;;;7.93;;
10641;SDS011;5369;49.586;8.646;2023-04-15T01:03:49;20.57;;;11.37;;
10641;SDS011;5369;49.586;8.646;2023-04-15T01:06:15;15.60;;;8.57;;
10641;SDS011;5369;49.586;8.646;2023-04-15T01:08:43;13.50;;;8.27;;
10641;SDS011;5369;49.586;8.646;2023-04-15T01:11:11;15.50;;;8.93;;
10641;SDS011;5369;49.586;8.646;2023-04-15T01:13:38;13.20;;;7.10;;
10641;SDS011;5369;49.586;8.646;2023-04-15T01:16:05;11.53;;;7.87;;
10641;SDS011;5369;49.586;8.646;2023-04-15T01:18:31;12.97;;;6.90;;
10641;SDS011;5369;49.586;8.646;2023-04-15T01:20:59;9.37;;;6.20;;
10641;SDS011;5369;49.586;8.646;2023-04-15T01:23:26;9.17;;;6.03;;
10641;SDS011;5369;49.586;8.646;2023-04-15T01:25:53;10.23;;;5.90;;
10641;SDS011;5369;49.586;8.646;2023-04-15T01:28:19;11.07;;;6.43;;
10641;SDS011;5369;49.586;8.646;2023-04-15T01:30:45;7.90;;;5.07;;
10641;SDS011;5369;49.586;8.646;2023-04-15T01:33:13;7.80;;;5.63;;
10641;SDS011;5369;49.586;8.646;2023-04-15T01:35:58;8.40;;;5.73;;
10641;SDS011;5369;49.586;8.646;2023-04-15T01:38:25;7.90;;;5.40;;
10641;SDS011;5369;49.586;8.646;2023-04-15T01:40:52;7.90;;;5.60;;
10641;SDS011;5369;49.586;8.646;2023-04-15T01:43:20;8.60;;;6.30;;
10641;SDS011;5369;49.586;8.646;2023-04-15T01:45:47;9.37;;;5.97;;
10641;SDS011;5369;49.586;8.646;2023-04-15T01:48:14;8.50;;;5.67;;
10641;SDS011;5369;49.586;8.646;2023-04-15T01:50:42;11.07;;;6.20;;
10641;SDS011;5369;49.586;8.646;2023-04-15T01:53:09;8.23;;;5.60;;
10641;SDS011;5369;49.586;8.646;2023-04-15T01:55:37;8.57;;;5.60;;
10641;SDS011;5369;49.586;8.646;2023-04-15T01:58:04;8.53;;;5.53;;
10641;SDS011;5369;49.586;8.646;2023-04-15T02:00:32;8.43;;;5.30;;
10641;SDS011;5369;49.586;8.646;2023-04-15T02:03:00;9.03;;;5.13;;
10641;SDS011;5369;49.586;8.646;2023-04-15T02:05:28;7.53;;;5.60;;
10641;SDS011;5369;49.586;8.646;2023-04-15T02:07:56;8.33;;;5.20;;
10641;SDS011;5369;49.586;8.646;2023-04-15T02:10:23;9.00;;;5.63;;
10641;SDS011;5369;49.586;8.646;2023-04-15T02:12:51;9.67;;;6.00;;
10641;SDS011;5369;49.586;8.646;2023-04-15T02:15:19;7.77;;;5.83;;
10641;SDS011;5369;49.586;8.646;2023-04-15T02:17:49;7.30;;;4.90;;
10641;SDS011;5369;49.586;8.646;2023-04-15T02:20:18;8.40;;;5.40;;
10641;SDS011;5369;49.586;8.646;2023-04-15T02:22:46;7.63;;;5.67;;
10641;SDS011;5369;49.586;8.646;2023-04-15T02:25:15;8.20;;;5.70;;
10641;SDS011;5369;49.586;8.646;2023-04-15T02:27:42;7.30;;;5.57;;
10641;SDS011;5369;49.586;8.646;2023-04-15T02:30:10;7.73;;;5.63;;
10641;SDS011;5369;49.586;8.646;2023-04-15T02:32:37;7.37;;;5.40;;
10641;SDS011;5369;49.586;8.646;2023-04-15T02:35:05;8.30;;;5.20;;
10641;SDS011;5369;49.586;8.646;2023-04-15T02:37:34;7.30;;;5.17;;
10641;SDS011;5369;49.586;8.646;2023-04-15T02:40:10;7.70;;;5.00;;
10641;SDS011;5369;49.586;8.646;2023-04-15T02:42:38;8.07;;;5.13;;
10641;SDS011;5369;49.586;8.646;2023-04-15T02:45:06;9.33;;;5.53;;
10641;SDS011;5369;49.586;8.646;2023-04-15T02:47:35;7.80;;;5.03;;
10641;SDS011;5369;49.586;8.646;2023-04-15T02:50:05;7.40;;;4.90;;
10641;SDS011;5369;49.586;8.646;2023-04-15T02:52:33;7.47;;;4.57;;
10641;SDS011;5369;49.586;8.646;2023-04-15T02:55:00;6.63;;;4.73;;
10641;SDS011;5369;49.586;8.646;2023-04-15T02:57:29;8.50;;;5.63;;
10641;SDS011;5369;49.586;8.646;2023-04-15T03:00:02;10.00;;;6.10;;
10641;SDS011;5369;49.586;8.646;2023-04-15T03:02:33;9.33;;;6.07;;
10641;SDS011;5369;49.586;8.646;2023-04-15T03:05:01;7.60;;;5.23;;
10641;SDS011;5369;49.586;8.646;2023-04-15T03:07:29;8.53;;;6.47;;
10641;SDS011;5369;49.586;8.646;2023-04-15T03:09:57;6.93;;;4.93;;
10641;SDS011;5369;49.586;8.646;2023-04-15T03:12:25;9.10;;;5.37;;
10641;SDS011;5369;49.586;8.646;2023-04-15T03:14:55;7.17;;;5.40;;
10641;SDS011;5369;49.586;8.646;2023-04-15T03:17:31;7.87;;;5.73;;
10641;SDS011;5369;49.586;8.646;2023-04-15T03:20:00;7.07;;;5.37;;
10641;SDS011;5369;49.586;8.646;2023-04-15T03:22:28;9.00;;;5.27;;
10641;SDS011;5369;49.586;8.646;2023-04-15T03:24:56;7.20;;;5.17;;
10641;SDS011;5369;49.586;8.646;2023-04-15T03:27:24;9.47;;;5.50;;
10641;SDS011;5369;49.586;8.646;2023-04-15T03:29:54;7.07;;;5.10;;
10641;SDS011;5369;49.586;8.646;2023-04-15T03:32:23;7.73;;;5.10;;
10641;SDS011;5369;49.586;8.646;2023-04-15T03:34:52;6.37;;;4.70;;
10641;SDS011;5369;49.586;8.646;2023-04-15T03:37:19;7.50;;;4.57;;
10641;SDS011;5369;49.586;8.646;2023-04-15T03:39:47;7.27;;;5.30;;
10641;SDS011;5369;49.586;8.646;2023-04-15T03:42:14;6.00;;;5.23;;
10641;SDS011;5369;49.586;8.646;2023-04-15T03:44:41;7.97;;;5.07;;
10641;SDS011;5369;49.586;8.646;2023-04-15T03:47:09;6.17;;;5.00;;
10641;SDS011;5369;49.586;8.646;2023-04-15T03:49:36;8.67;;;4.93;;
10641;SDS011;5369;49.586;8.646;2023-04-15T03:52:04;6.30;;;4.77;;
10641;SDS011;5369;49.586;8.646;2023-04-15T03:54:31;5.70;;;3.90;;
10641;SDS011;5369;49.586;8.646;2023-04-15T03:56:58;6.07;;;4.23;;
10641;SDS011;5369;49.586;8.646;2023-04-15T03:59:27;6.97;;;4.83;;
10641;SDS011;5369;49.586;8.646;2023-04-15T04:01:54;9.47;;;5.30;;
10641;SDS011;5369;49.586;8.646;2023-04-15T04:04:21;6.43;;;5.00;;
10641;SDS011;5369;49.586;8.646;2023-04-15T04:06:49;9.33;;;5.70;;
10641;SDS011;5369;49.586;8.646;2023-04-15T04:09:16;7.05;;;5.38;;
10641;SDS011;5369;49.586;8.646;2023-04-15T04:11:43;6.13;;;4.80;;
10641;SDS011;5369;49.586;8.646;2023-04-15T04:14:11;8.20;;;5.60;;
10641;SDS011;5369;49.586;8.646;2023-04-15T04:16:38;8.60;;;5.70;;
10641;SDS011;5369;49.586;8.646;2023-04-15T04:19:05;6.37;;;4.90;;
10641;SDS011;5369;49.586;8.646;2023-04-15T04:21:33;6.40;;;4.90;;
10641;SDS011;5369;49.586;8.646;2023-04-15T04:24:01;5.30;;;4.30;;
10641;SDS011;5369;49.586;8.646;2023-04-15T04:26:29;5.57;;;4.47;;
10641;SDS011;5369;49.586;8.646;2023-04-15T04:28:56;5.20;;;4.47;;
10641;SDS011;5369;49.586;8.646;2023-04-15T04:31:23;7.13;;;5.07;;
10641;SDS011;5369;49.586;8.646;2023-04-15T04:33:51;7.17;;;4.90;;
10641;SDS011;5369;49.586;8.646;2023-04-15T04:36:18;7.13;;;5.30;;
10641;SDS011;5369;49.586;8.646;2023-04-15T04:38:45;6.60;;;5.10;;
10641;SDS011;5369;49.586;8.646;2023-04-15T04:41:13;6.33;;;4.97;;
10641;SDS011;5369;49.586;8.646;2023-04-15T04:43:40;8.50;;;5.63;;
10641;SDS011;5369;49.586;8.646;2023-04-15T04:46:07;7.00;;;5.20;;
10641;SDS011;5369;49.586;8.646;2023-04-15T04:48:35;7.47;;;5.67;;
10641;SDS011;5369;49.586;8.646;2023-04-15T04:51:03;8.67;;;5.60;;
10641;SDS011;5369;49.586;8.646;2023-04-15T04:53:30;8.93;;;5.73;;
10641;SDS011;5369;49.586;8.646;2023-04-15T04:55:57;8.70;;;5.07;;
10641;SDS011;5369;49.586;8.646;2023-04-15T04:58:25;6.67;;;4.53;;
10641;SDS011;5369;49.586;8.646;2023-04-15T05:00:52;6.63;;;4.93;;
10641;SDS011;5369;49.586;8.646;2023-04-15T05:03:20;9.07;;;5.37;;
10641;SDS011;5369;49.586;8.646;2023-04-15T05:05:47;7.03;;;5.30;;
10641;SDS011;5369;49.586;8.646;2023-04-15T05:08:15;6.57;;;4.80;;
10641;SDS011;5369;49.586;8.646;2023-04-15T05:10:42;6.97;;;5.50;;
10641;SDS011;5369;49.586;8.646;2023-04-15T05:13:09;6.20;;;4.80;;
10641;SDS011;5369;49.586;8.646;2023-04-15T05:15:37;8.37;;;5.30;;
10641;SDS011;5369;49.586;8.646;2023-04-15T05:18:06;6.57;;;5.00;;
10641;SDS011;5369;49.586;8.646;2023-04-15T05:20:33;5.77;;;5.00;;
10641;SDS011;5369;49.586;8.646;2023-04-15T05:23:01;8.27;;;5.70;;
10641;SDS011;5369;49.586;8.646;2023-04-15T05:25:28;7.77;;;5.07;;
10641;SDS011;5369;49.586;8.646;2023-04-15T05:27:56;5.80;;;4.50;;
10641;SDS011;5369;49.586;8.646;2023-04-15T05:30:23;6.03;;;4.97;;
10641;SDS011;5369;49.586;8.646;2023-04-15T05:32:50;5.07;;;4.43;;
10641;SDS011;5369;49.586;8.646;2023-04-15T05:35:18;6.77;;;4.23;;
10641;SDS011;5369;49.586;8.646;2023-04-15T05:37:45;5.70;;;4.50;;
10641;SDS011;5369;49.586;8.646;2023-04-15T05:40:13;7.00;;;4.40;;
10641;SDS011;5369;49.586;8.646;2023-04-15T05:42:40;5.70;;;4.30;;
10641;SDS011;5369;49.586;8.646;2023-04-15T05:45:08;5.80;;;4.47;;
10641;SDS011;5369;49.586;8.646;2023-04-15T05:47:35;6.57;;;5.20;;
10641;SDS011;5369;49.586;8.646;2023-04-15T05:50:03;6.27;;;4.83;;
10641;SDS011;5369;49.586;8.646;2023-04-15T05:52:31;9.97;;;6.00;;
10641;SDS011;5369;49.586;8.646;2023-04-15T05:54:58;7.70;;;5.40;;
10641;SDS011;5369;49.586;8.646;2023-04-15T05:57:25;6.30;;;5.07;;
10641;SDS011;5369;49.586;8.646;2023-04-15T05:59:53;10.63;;;5.10;;
10641;SDS011;5369;49.586;8.646;2023-04-15T06:02:22;8.50;;;5.20;;
10641;SDS011;5369;49.586;8.646;2023-04-15T06:04:49;7.80;;;4.67;;
10641;SDS011;5369;49.586;8.646;2023-04-15T06:07:17;9.30;;;5.83;;
10641;SDS011;5369;49.586;8.646;2023-04-15T06:09:45;8.17;;;5.10;;
10641;SDS011;5369;49.586;8.646;2023-04-15T06:12:12;9.07;;;5.27;;
10641;SDS011;5369;49.586;8.646;2023-04-15T06:14:40;6.50;;;5.03;;
10641;SDS011;5369;49.586;8.646;2023-04-15T06:17:07;6.43;;;4.77;;
10641;SDS011;5369;49.586;8.646;2023-04-15T06:19:34;9.57;;;5.40;;
10641;SDS011;5369;49.586;8.646;2023-04-15T06:22:02;8.77;;;5.37;;
10641;SDS011;5369;49.586;8.646;2023-04-15T06:24:29;7.33;;;5.23;;
10641;SDS011;5369;49.586;8.646;2023-04-15T06:26:58;12.13;;;5.90;;
10641;SDS011;5369;49.586;8.646;2023-04-15T06:29:27;6.40;;;4.97;;
10641;SDS011;5369;49.586;8.646;2023-04-15T06:31:55;8.93;;;5.47;;
10641;SDS011;5369;49.586;8.646;2023-04-15T06:34:22;8.93;;;5.63;;
10641;SDS011;5369;49.586;8.646;2023-04-15T06:36:49;8.40;;;5.90;;
10641;SDS011;5369;49.586;8.646;2023-04-15T06:39:17;9.97;;;6.70;;
10641;SDS011;5369;49.586;8.646;2023-04-15T06:41:44;8.83;;;6.07;;
10641;SDS011;5369;49.586;8.646;2023-04-15T06:44:12;7.17;;;5.30;;
10641;SDS011;5369;49.586;8.646;2023-04-15T06:46:39;6.77;;;5.50;;
10641;SDS011;5369;49.586;8.646;2023-04-15T06:49:07;8.93;;;6.60;;
10641;SDS011;5369;49.586;8.646;2023-04-15T06:51:34;9.00;;;6.03;;
10641;SDS011;5369;49.586;8.646;2023-04-15T06:54:02;8.03;;;5.80;;
10641;SDS011;5369;49.586;8.646;2023-04-15T06:56:31;8.73;;;6.47;;
10641;SDS011;5369;49.586;8.646;2023-04-15T06:58:59;7.63;;;6.00;;
10641;SDS011;5369;49.586;8.646;2023-04-15T07:01:26;10.23;;;5.83;;
10641;SDS011;5369;49.586;8.646;2023-04-15T07:03:54;8.40;;;5.77;;
10641;SDS011;5369;49.586;8.646;2023-04-15T07:06:21;8.43;;;6.33;;
10641;SDS011;5369;49.586;8.646;2023-04-15T07:08:48;9.00;;;5.73;;
10641;SDS011;5369;49.586;8.646;2023-04-15T07:11:16;8.93;;;5.90;;
10641;SDS011;5369;49.586;8.646;2023-04-15T07:13:43;5.83;;;5.10;;
10641;SDS011;5369;49.586;8.646;2023-04-15T07:16:11;5.80;;;4.80;;
10641;SDS011;5369;49.586;8.646;2023-04-15T07:18:38;6.80;;;5.63;;
10641;SDS011;5369;49.586;8.646;2023-04-15T07:21:05;8.30;;;5.30;;
10641;SDS011;5369;49.586;8.646;2023-04-15T07:23:33;7.97;;;5.80;;
10641;SDS011;5369;49.586;8.646;2023-04-15T07:26:01;6.90;;;5.20;;
10641;SDS011;5369;49.586;8.646;2023-04-15T07:28:28;7.73;;;5.67;;
10641;SDS011;5369;49.586;8.646;2023-04-15T07:30:56;6.60;;;5.17;;
10641;SDS011;5369;49.586;8.646;2023-04-15T07:33:24;7.17;;;5.33;;
10641;SDS011;5369;49.586;8.646;2023-04-15T07:35:51;7.87;;;5.70;;
10641;SDS011;5369;49.586;8.646;2023-04-15T07:38:18;13.30;;;5.47;;
10641;SDS011;5369;49.586;8.646;2023-04-15T07:40:46;7.07;;;5.30;;
10641;SDS011;5369;49.586;8.646;2023-04-15T07:43:13;7.57;;;5.37;;
10641;SDS011;5369;49.586;8.646;2023-04-15T07:45:41;7.60;;;5.20;;
10641;SDS011;5369;49.586;8.646;2023-04-15T07:48:08;8.73;;;6.00;;
10641;SDS011;5369;49.586;8.646;2023-04-15T07:50:36;5.67;;;5.07;;
10641;SDS011;5369;49.586;8.646;2023-04-15T07:53:03;6.07;;;4.77;;
10641;SDS011;5369;49.586;8.646;2023-04-15T07:55:31;5.17;;;4.30;;
10641;SDS011;5369;49.586;8.646;2023-04-15T07:57:59;4.73;;;4.20;;
10641;SDS011;5369;49.586;8.646;2023-04-15T08:00:26;5.47;;;4.47;;
10641;SDS011;5369;49.586;8.646;2023-04-15T08:02:55;8.37;;;4.67;;
10641;SDS011;5369;49.586;8.646;2023-04-15T08:05:24;4.70;;;4.10;;
10641;SDS011;5369;49.586;8.646;2023-04-15T08:07:51;5.33;;;4.83;;
10641;SDS011;5369;49.586;8.646;2023-04-15T08:10:19;6.03;;;4.70;;
10641;SDS011;5369;49.586;8.646;2023-04-15T08:12:46;6.50;;;5.20;;
10641;SDS011;5369;49.586;8.646;2023-04-15T08:15:14;5.20;;;4.70;;
10641;SDS011;5369;49.586;8.646;2023-04-15T08:17:42;5.50;;;4.27;;
10641;SDS011;5369;49.586;8.646;2023-04-15T08:20:09;7.80;;;5.10;;
10641;SDS011;5369;49.586;8.646;2023-04-15T08:22:37;4.70;;;4.30;;
10641;SDS011;5369;49.586;8.646;2023-04-15T08:25:05;5.90;;;4.53;;
10641;SDS011;5369;49.586;8.646;2023-04-15T08:27:32;9.73;;;4.93;;
10641;SDS011;5369;49.586;8.646;2023-04-15T08:30:00;6.40;;;5.33;;
10641;SDS011;5369;49.586;8.646;2023-04-15T08:32:27;7.57;;;4.70;;
10641;SDS011;5369;49.586;8.646;2023-04-15T08:34:54;5.57;;;4.70;;
10641;SDS011;5369;49.586;8.646;2023-04-15T08:37:22;7.23;;;5.90;;
10641;SDS011;5369;49.586;8.646;2023-04-15T08:39:49;7.70;;;5.47;;
10641;SDS011;5369;49.586;8.646;2023-04-15T08:42:16;6.77;;;5.10;;
10641;SDS011;5369;49.586;8.646;2023-04-15T08:44:45;7.27;;;5.57;;
10641;SDS011;5369;49.586;8.646;2023-04-15T08:47:14;7.13;;;5.03;;
10641;SDS011;5369;49.586;8.646;2023-04-15T08:49:44;7.90;;;5.17;;
10641;SDS011;5369;49.586;8.646;2023-04-15T08:52:12;6.40;;;5.20;;
10641;SDS011;5369;49.586;8.646;2023-04-15T08:54:39;7.20;;;5.30;;
10641;SDS011;5369;49.586;8.646;2023-04-15T08:57:07;7.53;;;5.60;;
10641;SDS011;5369;49.586;8.646;2023-04-15T08:59:34;7.83;;;5.10;;
10641;SDS011;5369;49.586;8.646;2023-04-15T09:02:02;6.23;;;5.17;;
10641;SDS011;5369;49.586;8.646;2023-04-15T09:04:29;8.03;;;5.70;;
10641;SDS011;5369;49.586;8.646;2023-04-15T09:06:57;9.93;;;6.20;;
10641;SDS011;5369;49.586;8.646;2023-04-15T09:09:24;9.33;;;6.30;;
10641;SDS011;5369;49.586;8.646;2023-04-15T09:11:52;9.27;;;6.73;;
10641;SDS011;5369;49.586;8.646;2023-04-15T09:14:19;8.77;;;6.73;;
10641;SDS011;5369;49.586;8.646;2023-04-15T09:16:59;6.77;;;6.07;;
10641;SDS011;5369;49.586;8.646;2023-04-15T09:19:27;7.47;;;6.20;;
10641;SDS011;5369;49.586;8.646;2023-04-15T09:21:56;7.77;;;6.13;;
10641;SDS011;5369;49.586;8.646;2023-04-15T09:24:24;8.30;;;6.07;;
10641;SDS011;5369;49.586;8.646;2023-04-15T09:26:52;9.27;;;6.60;;
10641;SDS011;5369;49.586;8.646;2023-04-15T09:29:23;11.50;;;8.13;;
10641;SDS011;5369;49.586;8.646;2023-04-15T09:31:50;9.30;;;7.10;;
10641;SDS011;5369;49.586;8.646;2023-04-15T09:34:18;8.30;;;6.57;;
10641;SDS011;5369;49.586;8.646;2023-04-15T09:39:17;6.53;;;5.57;;
10641;SDS011;5369;49.586;8.646;2023-04-15T09:41:44;7.33;;;5.20;;
10641;SDS011;5369;49.586;8.646;2023-04-15T09:44:24;6.93;;;5.87;;
10641;SDS011;5369;49.586;8.646;2023-04-15T09:46:52;7.40;;;5.77;;
10641;SDS011;5369;49.586;8.646;2023-04-15T09:49:19;7.17;;;5.57;;
10641;SDS011;5369;49.586;8.646;2023-04-15T09:51:47;7.57;;;5.50;;
10641;SDS011;5369;49.586;8.646;2023-04-15T09:54:18;8.43;;;5.93;;
10641;SDS011;5369;49.586;8.646;2023-04-15T09:56:46;7.20;;;6.07;;
10641;SDS011;5369;49.586;8.646;2023-04-15T09:59:14;6.67;;;5.33;;
10641;SDS011;5369;49.586;8.646;2023-04-15T10:01:41;10.27;;;6.27;;
10641;SDS011;5369;49.586;8.646;2023-04-15T10:04:09;6.20;;;5.40;;
10641;SDS011;5369;49.586;8.646;2023-04-15T10:06:37;4.87;;;4.43;;
10641;SDS011;5369;49.586;8.646;2023-04-15T10:09:06;6.27;;;3.90;;
10641;SDS011;5369;49.586;8.646;2023-04-15T10:11:33;4.97;;;3.90;;
10641;SDS011;5369;49.586;8.646;2023-04-15T10:14:01;4.70;;;3.80;;
10641;SDS011;5369;49.586;8.646;2023-04-15T10:16:29;4.00;;;3.60;;
10641;SDS011;5369;49.586;8.646;2023-04-15T10:19:00;5.67;;;3.87;;
10641;SDS011;5369;49.586;8.646;2023-04-15T10:21:27;4.73;;;3.30;;
10641;SDS011;5369;49.586;8.646;2023-04-15T10:23:56;5.07;;;3.23;;
10641;SDS011;5369;49.586;8.646;2023-04-15T10:26:24;4.20;;;3.53;;
10641;SDS011;5369;49.586;8.646;2023-04-15T10:28:52;4.13;;;3.00;;
10641;SDS011;5369;49.586;8.646;2023-04-15T10:31:20;3.83;;;2.80;;
10641;SDS011;5369;49.586;8.646;2023-04-15T10:33:48;2.97;;;2.43;;
10641;SDS011;5369;49.586;8.646;2023-04-15T10:36:16;2.53;;;2.20;;
10641;SDS011;5369;49.586;8.646;2023-04-15T10:38:45;2.63;;;2.43;;
10641;SDS011;5369;49.586;8.646;2023-04-15T10:41:20;3.90;;;2.27;;
10641;SDS011;5369;49.586;8.646;2023-04-15T10:43:55;2.60;;;2.00;;
10641;SDS011;5369;49.586;8.646;2023-04-15T10:48:51;2.40;;;1.90;;
10641;SDS011;5369;49.586;8.646;2023-04-15T10:51:25;5.43;;;1.97;;
10641;SDS011;5369;49.586;8.646;2023-04-15T10:53:55;4.73;;;2.10;;
10641;SDS011;5369;49.586;8.646;2023-04-15T10:56:23;2.67;;;1.90;;
10641;SDS011;5369;49.586;8.646;2023-04-15T10:58:50;3.27;;;2.20;;
10641;SDS011;5369;49.586;8.646;2023-04-15T11:01:18;2.40;;;1.60;;
10641;SDS011;5369;49.586;8.646;2023-04-15T11:03:48;3.23;;;1.93;;
10641;SDS011;5369;49.586;8.646;2023-04-15T11:06:16;2.80;;;1.80;;
10641;SDS011;5369;49.586;8.646;2023-04-15T11:09:02;2.80;;;2.20;;
10641;SDS011;5369;49.586;8.646;2023-04-15T11:12:03;2.13;;;1.60;;
10641;SDS011;5369;49.586;8.646;2023-04-15T11:14:32;3.03;;;2.00;;
10641;SDS011;5369;49.586;8.646;2023-04-15T11:17:01;2.73;;;1.83;;
10641;SDS011;5369;49.586;8.646;2023-04-15T11:19:34;1.90;;;1.60;;
10641;SDS011;5369;49.586;8.646;2023-04-15T11:22:05;2.00;;;1.60;;
10641;SDS011;5369;49.586;8.646;2023-04-15T11:24:33;2.43;;;1.67;;
10641;SDS011;5369;49.586;8.646;2023-04-15T11:27:01;2.33;;;1.60;;
10641;SDS011;5369;49.586;8.646;2023-04-15T11:29:29;2.67;;;1.50;;
10641;SDS011;5369;49.586;8.646;2023-04-15T11:32:09;1.70;;;1.50;;
10641;SDS011;5369;49.586;8.646;2023-04-15T11:34:36;2.30;;;1.40;;
10641;SDS011;5369;49.586;8.646;2023-04-15T11:37:04;2.30;;;1.60;;
10641;SDS011;5369;49.586;8.646;2023-04-15T11:39:32;2.50;;;1.60;;
10641;SDS011;5369;49.586;8.646;2023-04-15T11:41:59;1.90;;;1.70;;
10641;SDS011;5369;49.586;8.646;2023-04-15T11:44:27;1.80;;;1.63;;
10641;SDS011;5369;49.586;8.646;2023-04-15T11:46:54;1.60;;;1.43;;
10641;SDS011;5369;49.586;8.646;2023-04-15T11:49:26;1.70;;;1.60;;
10641;SDS011;5369;49.586;8.646;2023-04-15T11:51:52;2.60;;;1.77;;
10641;SDS011;5369;49.586;8.646;2023-04-15T11:54:18;2.07;;;1.40;;
10641;SDS011;5369;49.586;8.646;2023-04-15T11:56:48;3.67;;;1.87;;
10641;SDS011;5369;49.586;8.646;2023-04-15T11:59:15;2.83;;;1.77;;
10641;SDS011;5369;49.586;8.646;2023-04-15T12:01:41;2.97;;;1.73;;
10641;SDS011;5369;49.586;8.646;2023-04-15T12:04:11;2.23;;;2.03;;
10641;SDS011;5369;49.586;8.646;2023-04-15T12:06:37;4.00;;;2.17;;
10641;SDS011;5369;49.586;8.646;2023-04-15T12:09:10;2.97;;;2.20;;
10641;SDS011;5369;49.586;8.646;2023-04-15T12:16:47;2.27;;;2.00;;
10641;SDS011;5369;49.586;8.646;2023-04-15T12:19:14;4.40;;;2.53;;
10641;SDS011;5369;49.586;8.646;2023-04-15T12:21:43;4.87;;;2.67;;
10641;SDS011;5369;49.586;8.646;2023-04-15T12:24:09;3.17;;;2.60;;
10641;SDS011;5369;49.586;8.646;2023-04-15T12:29:06;3.20;;;2.37;;
10641;SDS011;5369;49.586;8.646;2023-04-15T12:31:36;3.80;;;2.30;;
10641;SDS011;5369;49.586;8.646;2023-04-15T12:34:03;3.03;;;2.50;;
10641;SDS011;5369;49.586;8.646;2023-04-15T12:36:33;2.87;;;2.13;;
10641;SDS011;5369;49.586;8.646;2023-04-15T12:39:02;3.20;;;2.00;;
10641;SDS011;5369;49.586;8.646;2023-04-15T12:41:29;4.57;;;2.43;;
10641;SDS011;5369;49.586;8.646;2023-04-15T12:43:55;3.63;;;2.40;;
10641;SDS011;5369;49.586;8.646;2023-04-15T12:46:22;4.30;;;2.33;;
10641;SDS011;5369;49.586;8.646;2023-04-15T12:48:49;3.20;;;2.37;;
10641;SDS011;5369;49.586;8.646;2023-04-15T12:51:16;2.50;;;2.00;;
10641;SDS011;5369;49.586;8.646;2023-04-15T12:53:42;4.03;;;1.90;;
10641;SDS011;5369;49.586;8.646;2023-04-15T12:56:08;3.03;;;2.00;;
10641;SDS011;5369;49.586;8.646;2023-04-15T12:58:34;4.37;;;2.03;;
10641;SDS011;5369;49.586;8.646;2023-04-15T13:01:01;2.13;;;1.93;;
10641;SDS011;5369;49.586;8.646;2023-04-15T13:03:27;4.03;;;2.47;;
10641;SDS011;5369;49.586;8.646;2023-04-15T13:05:54;3.07;;;2.00;;
10641;SDS011;5369;49.586;8.646;2023-04-15T13:08:21;2.20;;;1.80;;
10641;SDS011;5369;49.586;8.646;2023-04-15T13:10:48;3.97;;;1.90;;
10641;SDS011;5369;49.586;8.646;2023-04-15T13:13:14;2.00;;;1.70;;
10641;SDS011;5369;49.586;8.646;2023-04-15T13:15:40;2.70;;;1.67;;
10641;SDS011;5369;49.586;8.646;2023-04-15T13:18:09;2.63;;;1.60;;
10641;SDS011;5369;49.586;8.646;2023-04-15T13:20:35;3.10;;;2.07;;
10641;SDS011;5369;49.586;8.646;2023-04-15T13:23:01;5.13;;;2.53;;
10641;SDS011;5369;49.586;8.646;2023-04-15T13:25:28;2.30;;;1.80;;
10641;SDS011;5369;49.586;8.646;2023-04-15T13:27:54;2.13;;;1.53;;
10641;SDS011;5369;49.586;8.646;2023-04-15T13:30:21;2.83;;;1.80;;
10641;SDS011;5369;49.586;8.646;2023-04-15T13:32:48;2.27;;;1.40;;
10641;SDS011;5369;49.586;8.646;2023-04-15T13:35:14;3.43;;;1.60;;
10641;SDS011;5369;49.586;8.646;2023-04-15T13:37:41;3.47;;;1.63;;
10641;SDS011;5369;49.586;8.646;2023-04-15T13:40:07;1.97;;;1.63;;
10641;SDS011;5369;49.586;8.646;2023-04-15T13:42:33;2.00;;;1.60;;
10641;SDS011;5369;49.586;8.646;2023-04-15T13:44:59;2.83;;;1.80;;
10641;SDS011;5369;49.586;8.646;2023-04-15T13:47:26;3.00;;;1.83;;
10641;SDS011;5369;49.586;8.646;2023-04-15T13:49:52;2.30;;;1.90;;
10641;SDS011;5369;49.586;8.646;2023-04-15T13:52:20;3.40;;;1.90;;
10641;SDS011;5369;49.586;8.646;2023-04-15T13:54:46;1.80;;;1.60;;
10641;SDS011;5369;49.586;8.646;2023-04-15T13:57:12;3.90;;;2.00;;
10641;SDS011;5369;49.586;8.646;2023-04-15T13:59:38;5.33;;;1.80;;
10641;SDS011;5369;49.586;8.646;2023-04-15T14:02:05;3.03;;;2.60;;
10641;SDS011;5369;49.586;8.646;2023-04-15T14:04:31;3.07;;;2.77;;
10641;SDS011;5369;49.586;8.646;2023-04-15T14:06:58;2.90;;;2.30;;
10641;SDS011;5369;49.586;8.646;2023-04-15T14:09:24;2.93;;;2.50;;
10641;SDS011;5369;49.586;8.646;2023-04-15T14:11:50;2.93;;;2.63;;
10641;SDS011;5369;49.586;8.646;2023-04-15T14:14:16;4.00;;;2.17;;
10641;SDS011;5369;49.586;8.646;2023-04-15T14:16:42;2.53;;;2.30;;
10641;SDS011;5369;49.586;8.646;2023-04-15T14:19:09;2.20;;;1.80;;
10641;SDS011;5369;49.586;8.646;2023-04-15T14:21:35;2.13;;;1.83;;
10641;SDS011;5369;49.586;8.646;2023-04-15T14:24:01;2.00;;;1.80;;
10641;SDS011;5369;49.586;8.646;2023-04-15T14:26:27;2.93;;;1.90;;
10641;SDS011;5369;49.586;8.646;2023-04-15T14:28:53;1.77;;;1.60;;
10641;SDS011;5369;49.586;8.646;2023-04-15T14:31:19;1.83;;;1.73;;
10641;SDS011;5369;49.586;8.646;2023-04-15T14:33:46;1.70;;;1.60;;
10641;SDS011;5369;49.586;8.646;2023-04-15T14:36:12;1.90;;;1.70;;
10641;SDS011;5369;49.586;8.646;2023-04-15T14:38:38;2.47;;;2.00;;
10641;SDS011;5369;49.586;8.646;2023-04-15T14:41:05;1.83;;;1.70;;
10641;SDS011;5369;49.586;8.646;2023-04-15T14:43:32;2.13;;;1.90;;
10641;SDS011;5369;49.586;8.646;2023-04-15T14:45:59;2.57;;;1.60;;
10641;SDS011;5369;49.586;8.646;2023-04-15T14:48:25;1.50;;;1.40;;
10641;SDS011;5369;49.586;8.646;2023-04-15T14:50:52;1.60;;;1.50;;
10641;SDS011;5369;49.586;8.646;2023-04-15T14:53:18;1.70;;;1.60;;
10641;SDS011;5369;49.586;8.646;2023-04-15T14:55:44;1.70;;;1.60;;
10641;SDS011;5369;49.586;8.646;2023-04-15T14:58:10;1.90;;;1.70;;
10641;SDS011;5369;49.586;8.646;2023-04-15T15:00:37;1.80;;;1.70;;
10641;SDS011;5369;49.586;8.646;2023-04-15T15:03:06;3.20;;;1.90;;
10641;SDS011;5369;49.586;8.646;2023-04-15T15:05:40;2.77;;;1.97;;
10641;SDS011;5369;49.586;8.646;2023-04-15T15:08:06;1.60;;;1.47;;
10641;SDS011;5369;49.586;8.646;2023-04-15T15:10:36;3.20;;;1.30;;
10641;SDS011;5369;49.586;8.646;2023-04-15T15:13:03;1.77;;;1.30;;
10641;SDS011;5369;49.586;8.646;2023-04-15T15:15:29;1.60;;;1.30;;